sensor_id;sensor_type;location;lat;lon;timestamp;pressure;altitude;pressure_sealevel;temperature;humidity
85105;BME280;75457;53.198;45.008;2024-02-26T00:00:05;102415.13;;;-6.20;36.92
85105;BME280;75457;53.198;45.008;2024-02-26T00:02:30;102419.69;;;-6.20;37.04
85105;BME280;75457;53.198;45.008;2024-02-26T00:04:56;102423.22;;;-6.15;37.10
85105;BME280;75457;53.198;45.008;2024-02-26T00:07:22;102425.25;;;-6.27;37.00
85105;BME280;75457;53.198;45.008;2024-02-26T00:09:47;102421.56;;;-6.21;37.40
85105;BME280;75457;53.198;45.008;2024-02-26T00:12:13;102419.09;;;-6.27;36.96
85105;BME280;75457;53.198;45.008;2024-02-26T00:14:40;102413.84;;;-6.39;37.72
85105;BME280;75457;53.198;45.008;2024-02-26T00:17:05;102419.16;;;-6.44;37.54
85105;BME280;75457;53.198;45.008;2024-02-26T00:19:31;102421.09;;;-6.39;38.00
85105;BME280;75457;53.198;45.008;2024-02-26T00:21:56;102423.81;;;-6.34;37.78
85105;BME280;75457;53.198;45.008;2024-02-26T00:24:22;102418.88;;;-6.21;37.32
85105;BME280;75457;53.198;45.008;2024-02-26T00:26:48;102414.47;;;-6.05;37.15
85105;BME280;75457;53.198;45.008;2024-02-26T00:29:13;102418.56;;;-5.98;37.17
85105;BME280;75457;53.198;45.008;2024-02-26T00:31:40;102411.78;;;-6.05;37.62
85105;BME280;75457;53.198;45.008;2024-02-26T00:34:06;102411.53;;;-6.04;37.33
85105;BME280;75457;53.198;45.008;2024-02-26T00:36:31;102410.69;;;-6.09;37.19
85105;BME280;75457;53.198;45.008;2024-02-26T00:38:57;102416.19;;;-6.21;37.38
85105;BME280;75457;53.198;45.008;2024-02-26T00:41:22;102425.31;;;-6.22;37.43
85105;BME280;75457;53.198;45.008;2024-02-26T00:43:48;102428.56;;;-6.41;37.92
85105;BME280;75457;53.198;45.008;2024-02-26T00:46:13;102426.56;;;-6.29;37.82
85105;BME280;75457;53.198;45.008;2024-02-26T00:48:40;102426.19;;;-6.11;37.45
85105;BME280;75457;53.198;45.008;2024-02-26T00:51:06;102422.91;;;-5.92;37.09
85105;BME280;75457;53.198;45.008;2024-02-26T00:53:32;102415.69;;;-5.86;37.33
85105;BME280;75457;53.198;45.008;2024-02-26T00:55:57;102424.50;;;-5.91;37.05
85105;BME280;75457;53.198;45.008;2024-02-26T00:58:23;102416.94;;;-5.99;37.18
85105;BME280;75457;53.198;45.008;2024-02-26T01:00:49;102416.72;;;-5.92;37.16
85105;BME280;75457;53.198;45.008;2024-02-26T01:03:15;102419.38;;;-5.97;37.37
85105;BME280;75457;53.198;45.008;2024-02-26T01:05:42;102416.16;;;-5.94;37.65
85105;BME280;75457;53.198;45.008;2024-02-26T01:08:07;102413.50;;;-5.94;37.42
85105;BME280;75457;53.198;45.008;2024-02-26T01:10:33;102414.09;;;-6.14;37.60
85105;BME280;75457;53.198;45.008;2024-02-26T01:12:58;102415.56;;;-6.01;37.56
85105;BME280;75457;53.198;45.008;2024-02-26T01:15:24;102401.63;;;-6.03;37.74
85105;BME280;75457;53.198;45.008;2024-02-26T01:17:49;102411.28;;;-6.02;37.74
85105;BME280;75457;53.198;45.008;2024-02-26T01:20:15;102402.47;;;-5.98;37.37
85105;BME280;75457;53.198;45.008;2024-02-26T01:22:42;102403.72;;;-6.05;37.71
85105;BME280;75457;53.198;45.008;2024-02-26T01:25:08;102405.97;;;-5.97;37.74
85105;BME280;75457;53.198;45.008;2024-02-26T01:27:34;102411.78;;;-6.05;37.92
85105;BME280;75457;53.198;45.008;2024-02-26T01:29:59;102409.03;;;-6.10;37.92
85105;BME280;75457;53.198;45.008;2024-02-26T01:32:25;102408.22;;;-5.79;37.45
85105;BME280;75457;53.198;45.008;2024-02-26T01:34:50;102396.28;;;-5.62;37.38
85105;BME280;75457;53.198;45.008;2024-02-26T01:37:16;102406.28;;;-5.52;37.20
85105;BME280;75457;53.198;45.008;2024-02-26T01:39:43;102400.06;;;-5.58;37.29
85105;BME280;75457;53.198;45.008;2024-02-26T01:42:08;102395.78;;;-5.54;37.34
85105;BME280;75457;53.198;45.008;2024-02-26T01:44:34;102389.59;;;-5.59;37.33
85105;BME280;75457;53.198;45.008;2024-02-26T01:47:00;102397.69;;;-5.54;37.38
85105;BME280;75457;53.198;45.008;2024-02-26T01:49:26;102392.84;;;-5.52;37.30
85105;BME280;75457;53.198;45.008;2024-02-26T01:51:51;102390.19;;;-5.47;37.49
85105;BME280;75457;53.198;45.008;2024-02-26T01:54:18;102394.50;;;-5.46;37.32
85105;BME280;75457;53.198;45.008;2024-02-26T01:56:44;102395.53;;;-5.52;37.10
85105;BME280;75457;53.198;45.008;2024-02-26T01:59:10;102393.69;;;-5.52;37.12
85105;BME280;75457;53.198;45.008;2024-02-26T02:01:36;102389.13;;;-5.46;37.35
85105;BME280;75457;53.198;45.008;2024-02-26T02:04:03;102388.34;;;-5.47;37.20
85105;BME280;75457;53.198;45.008;2024-02-26T02:06:29;102387.22;;;-5.51;37.39
85105;BME280;75457;53.198;45.008;2024-02-26T02:08:55;102391.81;;;-5.46;37.07
85105;BME280;75457;53.198;45.008;2024-02-26T02:11:21;102391.59;;;-5.40;37.32
85105;BME280;75457;53.198;45.008;2024-02-26T02:13:48;102380.06;;;-5.35;37.27
85105;BME280;75457;53.198;45.008;2024-02-26T02:16:13;102393.00;;;-5.32;37.28
85105;BME280;75457;53.198;45.008;2024-02-26T02:18:39;102381.69;;;-5.34;37.30
85105;BME280;75457;53.198;45.008;2024-02-26T02:21:07;102394.59;;;-5.31;37.23
85105;BME280;75457;53.198;45.008;2024-02-26T02:23:32;102382.53;;;-5.24;37.29
85105;BME280;75457;53.198;45.008;2024-02-26T02:25:58;102386.91;;;-5.13;37.35
85105;BME280;75457;53.198;45.008;2024-02-26T02:28:26;102386.94;;;-5.08;37.14
85105;BME280;75457;53.198;45.008;2024-02-26T02:30:52;102392.34;;;-5.03;37.20
85105;BME280;75457;53.198;45.008;2024-02-26T02:33:19;102385.09;;;-4.97;37.10
85105;BME280;75457;53.198;45.008;2024-02-26T02:35:44;102377.56;;;-5.00;36.93
85105;BME280;75457;53.198;45.008;2024-02-26T02:38:11;102383.75;;;-4.95;37.10
85105;BME280;75457;53.198;45.008;2024-02-26T02:40:37;102374.91;;;-4.95;36.82
85105;BME280;75457;53.198;45.008;2024-02-26T02:43:03;102377.56;;;-5.00;37.02
85105;BME280;75457;53.198;45.008;2024-02-26T02:45:28;102370.31;;;-5.05;37.21
85105;BME280;75457;53.198;45.008;2024-02-26T02:47:54;102379.13;;;-5.09;37.43
85105;BME280;75457;53.198;45.008;2024-02-26T02:50:19;102367.34;;;-5.08;37.13
85105;BME280;75457;53.198;45.008;2024-02-26T02:52:45;102373.81;;;-4.99;37.12
85105;BME280;75457;53.198;45.008;2024-02-26T02:55:12;102373.53;;;-5.03;36.93
85105;BME280;75457;53.198;45.008;2024-02-26T02:57:38;102371.94;;;-4.99;36.78
85105;BME280;75457;53.198;45.008;2024-02-26T03:00:04;102373.81;;;-4.99;36.93
85105;BME280;75457;53.198;45.008;2024-02-26T03:02:30;102375.19;;;-4.92;36.73
85105;BME280;75457;53.198;45.008;2024-02-26T03:04:56;102370.63;;;-4.96;36.87
85105;BME280;75457;53.198;45.008;2024-02-26T03:07:21;102374.34;;;-5.02;36.89
85105;BME280;75457;53.198;45.008;2024-02-26T03:09:47;102377.59;;;-4.95;36.75
85105;BME280;75457;53.198;45.008;2024-02-26T03:12:14;102375.47;;;-4.88;36.56
85105;BME280;75457;53.198;45.008;2024-02-26T03:14:39;102370.38;;;-4.85;36.00
85105;BME280;75457;53.198;45.008;2024-02-26T03:17:05;102371.69;;;-4.92;36.45
85105;BME280;75457;53.198;45.008;2024-02-26T03:19:31;102373.53;;;-5.03;36.73
85105;BME280;75457;53.198;45.008;2024-02-26T03:21:56;102372.75;;;-4.98;36.83
85105;BME280;75457;53.198;45.008;2024-02-26T03:24:22;102376.53;;;-4.94;36.44
85105;BME280;75457;53.198;45.008;2024-02-26T03:26:47;102370.59;;;-4.91;36.61
85105;BME280;75457;53.198;45.008;2024-02-26T03:29:14;102374.34;;;-5.02;36.46
85105;BME280;75457;53.198;45.008;2024-02-26T03:31:40;102379.22;;;-4.94;36.44
85105;BME280;75457;53.198;45.008;2024-02-26T03:34:05;102379.72;;;-4.97;36.41
85105;BME280;75457;53.198;45.008;2024-02-26T03:36:31;102386.16;;;-5.08;36.61
85105;BME280;75457;53.198;45.008;2024-02-26T03:38:57;102383.16;;;-5.07;36.46
85105;BME280;75457;53.198;45.008;2024-02-26T03:41:22;102388.53;;;-5.12;36.58
85105;BME280;75457;53.198;45.008;2024-02-26T03:43:48;102387.75;;;-5.07;36.61
85105;BME280;75457;53.198;45.008;2024-02-26T03:46:15;102392.88;;;-5.06;36.34
85105;BME280;75457;53.198;45.008;2024-02-26T03:48:40;102390.69;;;-5.09;36.32
85105;BME280;75457;53.198;45.008;2024-02-26T03:51:08;102391.53;;;-5.08;36.39
85105;BME280;75457;53.198;45.008;2024-02-26T03:56:03;102399.56;;;-5.08;36.32
85105;BME280;75457;53.198;45.008;2024-02-26T03:58:29;102398.50;;;-5.07;36.29
85105;BME280;75457;53.198;45.008;2024-02-26T04:00:54;102398.50;;;-5.07;36.44
85105;BME280;75457;53.198;45.008;2024-02-26T04:03:21;102403.59;;;-5.11;36.37
85105;BME280;75457;53.198;45.008;2024-02-26T04:05:47;102411.31;;;-5.19;36.48
85105;BME280;75457;53.198;45.008;2024-02-26T04:08:12;102405.59;;;-5.33;37.04
85105;BME280;75457;53.198;45.008;2024-02-26T04:10:38;102408.78;;;-5.41;36.91
85105;BME280;75457;53.198;45.008;2024-02-26T04:13:04;102413.38;;;-5.36;36.72
85105;BME280;75457;53.198;45.008;2024-02-26T04:15:29;102413.97;;;-5.24;36.54
85105;BME280;75457;53.198;45.008;2024-02-26T04:17:55;102408.69;;;-5.14;36.48
85105;BME280;75457;53.198;45.008;2024-02-26T04:20:22;102415.19;;;-5.00;36.36
85105;BME280;75457;53.198;45.008;2024-02-26T04:22:48;102409.28;;;-4.97;36.28
85105;BME280;75457;53.198;45.008;2024-02-26T04:25:13;102413.31;;;-4.95;36.29
85105;BME280;75457;53.198;45.008;2024-02-26T04:27:39;102404.22;;;-4.89;36.43
85105;BME280;75457;53.198;45.008;2024-02-26T04:30:05;102406.66;;;-4.87;36.32
85105;BME280;75457;53.198;45.008;2024-02-26T04:32:31;102407.75;;;-4.83;36.28
85105;BME280;75457;53.198;45.008;2024-02-26T04:34:57;102407.34;;;-5.07;36.55
85105;BME280;75457;53.198;45.008;2024-02-26T04:37:24;102402.69;;;-5.26;37.10
85105;BME280;75457;53.198;45.008;2024-02-26T04:39:49;102408.31;;;-5.28;37.24
85105;BME280;75457;53.198;45.008;2024-02-26T04:42:15;102401.91;;;-5.22;37.08
85105;BME280;75457;53.198;45.008;2024-02-26T04:44:40;102397.06;;;-5.20;37.10
85105;BME280;75457;53.198;45.008;2024-02-26T04:47:06;102400.63;;;-5.09;36.92
85105;BME280;75457;53.198;45.008;2024-02-26T04:49:31;102396.88;;;-5.03;37.04
85105;BME280;75457;53.198;45.008;2024-02-26T04:51:57;102400.06;;;-5.16;37.14
85105;BME280;75457;53.198;45.008;2024-02-26T04:54:24;102400.91;;;-5.11;37.15
85105;BME280;75457;53.198;45.008;2024-02-26T04:56:49;102386.44;;;-4.95;37.01
85105;BME280;75457;53.198;45.008;2024-02-26T04:59:15;102392.72;;;-4.74;37.00
85105;BME280;75457;53.198;45.008;2024-02-26T05:01:41;102395.19;;;-4.63;36.66
85105;BME280;75457;53.198;45.008;2024-02-26T05:04:06;102392.53;;;-4.48;36.48
85105;BME280;75457;53.198;45.008;2024-02-26T05:06:32;102404.38;;;-4.49;36.66
85105;BME280;75457;53.198;45.008;2024-02-26T05:08:57;102396.06;;;-4.37;36.48
85105;BME280;75457;53.198;45.008;2024-02-26T05:11:24;102391.50;;;-4.32;36.52
85105;BME280;75457;53.198;45.008;2024-02-26T05:13:50;102392.88;;;-4.19;36.54
85105;BME280;75457;53.198;45.008;2024-02-26T05:16:15;102392.06;;;-4.05;36.69
85105;BME280;75457;53.198;45.008;2024-02-26T05:18:41;102395.56;;;-4.09;36.86
85105;BME280;75457;53.198;45.008;2024-02-26T05:21:06;102395.56;;;-4.09;36.86
85105;BME280;75457;53.198;45.008;2024-02-26T05:23:32;102395.28;;;-3.93;37.08
85105;BME280;75457;53.198;45.008;2024-02-26T05:25:58;102395.03;;;-3.76;36.63
85105;BME280;75457;53.198;45.008;2024-02-26T05:28:25;102391.28;;;-3.70;36.65
85105;BME280;75457;53.198;45.008;2024-02-26T05:30:50;102390.47;;;-3.66;37.21
85105;BME280;75457;53.198;45.008;2024-02-26T05:33:16;102386.69;;;-3.55;36.84
85105;BME280;75457;53.198;45.008;2024-02-26T05:35:42;102391.25;;;-3.40;37.38
85105;BME280;75457;53.198;45.008;2024-02-26T05:38:07;102391.50;;;-3.37;36.78
85105;BME280;75457;53.198;45.008;2024-02-26T05:40:33;102396.88;;;-3.27;37.10
85105;BME280;75457;53.198;45.008;2024-02-26T05:42:58;102395.53;;;-3.29;37.06
85105;BME280;75457;53.198;45.008;2024-02-26T05:45:25;102400.88;;;-3.19;37.07
85105;BME280;75457;53.198;45.008;2024-02-26T05:47:51;102396.53;;;-3.05;36.48
85105;BME280;75457;53.198;45.008;2024-02-26T05:50:17;102399.25;;;-3.10;37.48
85105;BME280;75457;53.198;45.008;2024-02-26T05:52:42;102395.94;;;-2.92;36.99
85105;BME280;75457;53.198;45.008;2024-02-26T05:55:08;102393.72;;;-2.75;37.00
85105;BME280;75457;53.198;45.008;2024-02-26T05:57:34;102394.72;;;-2.56;36.07
85105;BME280;75457;53.198;45.008;2024-02-26T06:00:00;102390.81;;;-2.35;36.30
85105;BME280;75457;53.198;45.008;2024-02-26T06:02:27;102396.19;;;-2.30;35.91
85105;BME280;75457;53.198;45.008;2024-02-26T06:04:53;102401.53;;;-2.20;36.46
85105;BME280;75457;53.198;45.008;2024-02-26T06:07:18;102389.03;;;-2.11;35.75
85105;BME280;75457;53.198;45.008;2024-02-26T06:09:44;102395.06;;;-2.24;36.39
85105;BME280;75457;53.198;45.008;2024-02-26T06:12:09;102393.47;;;-2.30;36.49
85105;BME280;75457;53.198;45.008;2024-02-26T06:14:35;102391.09;;;-2.37;36.29
85105;BME280;75457;53.198;45.008;2024-02-26T06:17:00;102398.34;;;-2.27;36.57
85105;BME280;75457;53.198;45.008;2024-02-26T06:19:27;102388.47;;;-2.47;36.58
85105;BME280;75457;53.198;45.008;2024-02-26T06:21:53;102390.25;;;-2.32;36.11
85105;BME280;75457;53.198;45.008;2024-02-26T06:24:18;102383.16;;;-2.18;35.90
85105;BME280;75457;53.198;45.008;2024-02-26T06:26:44;102380.44;;;-2.18;36.74
85105;BME280;75457;53.198;45.008;2024-02-26T06:29:10;102382.06;;;-2.17;36.57
85105;BME280;75457;53.198;45.008;2024-02-26T06:31:35;102384.22;;;-2.14;36.50
85105;BME280;75457;53.198;45.008;2024-02-26T06:34:01;102390.13;;;-2.12;36.17
85105;BME280;75457;53.198;45.008;2024-02-26T06:36:28;102394.88;;;-1.99;35.89
85105;BME280;75457;53.198;45.008;2024-02-26T06:38:53;102385.66;;;-1.93;35.57
85105;BME280;75457;53.198;45.008;2024-02-26T06:41:19;102388.28;;;-1.83;35.37
85105;BME280;75457;53.198;45.008;2024-02-26T06:43:44;102385.63;;;-1.88;36.01
85105;BME280;75457;53.198;45.008;2024-02-26T06:46:10;102384.94;;;-2.04;36.16
85105;BME280;75457;53.198;45.008;2024-02-26T06:48:35;102384.09;;;-1.99;35.94
85105;BME280;75457;53.198;45.008;2024-02-26T06:51:02;102385.38;;;-1.92;35.57
85105;BME280;75457;53.198;45.008;2024-02-26T06:53:29;102394.25;;;-1.86;35.58
85105;BME280;75457;53.198;45.008;2024-02-26T06:55:54;102395.63;;;-1.89;36.22
85105;BME280;75457;53.198;45.008;2024-02-26T06:58:20;102388.03;;;-1.87;35.63
85105;BME280;75457;53.198;45.008;2024-02-26T07:00:45;102388.03;;;-1.87;35.94
85105;BME280;75457;53.198;45.008;2024-02-26T07:03:11;102386.03;;;-1.71;35.94
85105;BME280;75457;53.198;45.008;2024-02-26T07:05:36;102390.88;;;-1.68;35.18
85105;BME280;75457;53.198;45.008;2024-02-26T07:08:02;102384.41;;;-1.72;35.82
85105;BME280;75457;53.198;45.008;2024-02-26T07:10:29;102379.84;;;-1.72;35.61
85105;BME280;75457;53.198;45.008;2024-02-26T07:12:54;102376.78;;;-1.65;35.84
85105;BME280;75457;53.198;45.008;2024-02-26T07:15:20;102373.38;;;-1.76;35.64
85105;BME280;75457;53.198;45.008;2024-02-26T07:17:45;102371.53;;;-1.80;35.85
85105;BME280;75457;53.198;45.008;2024-02-26T07:20:11;102374.75;;;-1.78;36.28
85105;BME280;75457;53.198;45.008;2024-02-26T07:22:37;102370.94;;;-1.77;36.56
85105;BME280;75457;53.198;45.008;2024-02-26T07:25:03;102367.22;;;-1.53;36.10
85105;BME280;75457;53.198;45.008;2024-02-26T07:27:30;102375.66;;;-1.59;36.26
85105;BME280;75457;53.198;45.008;2024-02-26T07:29:55;102375.91;;;-1.61;36.37
85105;BME280;75457;53.198;45.008;2024-02-26T07:32:21;102378.34;;;-1.59;36.32
85105;BME280;75457;53.198;45.008;2024-02-26T07:34:46;102375.13;;;-1.61;36.99
85105;BME280;75457;53.198;45.008;2024-02-26T07:37:12;102383.09;;;-1.46;36.62
85105;BME280;75457;53.198;45.008;2024-02-26T07:39:37;102382.47;;;-1.38;37.06
85105;BME280;75457;53.198;45.008;2024-02-26T07:42:03;102374.72;;;-1.21;36.52
85105;BME280;75457;53.198;45.008;2024-02-26T07:44:30;102382.50;;;-0.91;36.16
85105;BME280;75457;53.198;45.008;2024-02-26T07:46:56;102372.56;;;-0.77;35.75
85105;BME280;75457;53.198;45.008;2024-02-26T07:49:21;102374.84;;;-0.66;35.90
85105;BME280;75457;53.198;45.008;2024-02-26T07:51:47;102366.38;;;-0.59;35.84
85105;BME280;75457;53.198;45.008;2024-02-26T07:54:12;102375.81;;;-0.57;36.21
85105;BME280;75457;53.198;45.008;2024-02-26T07:56:37;102366.56;;;-0.74;36.04
85105;BME280;75457;53.198;45.008;2024-02-26T07:59:03;102379.19;;;-0.88;36.38
85105;BME280;75457;53.198;45.008;2024-02-26T08:01:30;102379.47;;;-0.90;36.34
85105;BME280;75457;53.198;45.008;2024-02-26T08:03:55;102372.06;;;-0.79;36.77
85105;BME280;75457;53.198;45.008;2024-02-26T08:06:21;102374.13;;;-0.71;36.47
85105;BME280;75457;53.198;45.008;2024-02-26T08:08:46;102375.22;;;-0.72;36.06
85105;BME280;75457;53.198;45.008;2024-02-26T08:11:13;102383.91;;;-0.75;36.53
85105;BME280;75457;53.198;45.008;2024-02-26T08:13:39;102371.97;;;-0.74;36.64
85105;BME280;75457;53.198;45.008;2024-02-26T09:37:39;102341.78;;;1.81;36.50
85105;BME280;75457;53.198;45.008;2024-02-26T09:40:05;102335.75;;;1.84;36.90
85105;BME280;75457;53.198;45.008;2024-02-26T09:42:31;102334.66;;;2.07;36.36
85105;BME280;75457;53.198;45.008;2024-02-26T09:45:00;102330.03;;;2.38;36.35
85105;BME280;75457;53.198;45.008;2024-02-26T09:47:26;102324.44;;;2.65;36.69
85105;BME280;75457;53.198;45.008;2024-02-26T09:49:56;102323.34;;;2.75;36.10
85105;BME280;75457;53.198;45.008;2024-02-26T09:52:23;102323.38;;;2.83;36.06
85105;BME280;75457;53.198;45.008;2024-02-26T09:54:50;102322.25;;;2.84;36.22
85105;BME280;75457;53.198;45.008;2024-02-26T09:57:16;102318.59;;;2.97;36.00
85105;BME280;75457;53.198;45.008;2024-02-26T09:59:42;102317.41;;;3.29;34.95
85105;BME280;75457;53.198;45.008;2024-02-26T10:02:11;102310.38;;;3.36;35.26
85105;BME280;75457;53.198;45.008;2024-02-26T10:04:38;102309.09;;;3.42;35.11
85105;BME280;75457;53.198;45.008;2024-02-26T10:07:05;102303.47;;;3.47;34.61
85105;BME280;75457;53.198;45.008;2024-02-26T10:09:35;102308.78;;;3.61;35.44
85105;BME280;75457;53.198;45.008;2024-02-26T10:12:02;102312.13;;;3.92;34.95
85105;BME280;75457;53.198;45.008;2024-02-26T10:14:28;102299.75;;;4.11;34.06
85105;BME280;75457;53.198;45.008;2024-02-26T10:16:54;102302.47;;;4.20;34.16
85105;BME280;75457;53.198;45.008;2024-02-26T10:19:26;102300.47;;;4.37;34.28
85105;BME280;75457;53.198;45.008;2024-02-26T10:21:55;102290.81;;;4.48;34.41
85105;BME280;75457;53.198;45.008;2024-02-26T10:24:21;102285.97;;;4.62;33.66
85105;BME280;75457;53.198;45.008;2024-02-26T10:26:47;102285.41;;;4.77;33.16
85105;BME280;75457;53.198;45.008;2024-02-26T10:29:14;102280.34;;;4.88;33.32
85105;BME280;75457;53.198;45.008;2024-02-26T10:31:42;102279.72;;;4.91;32.72
85105;BME280;75457;53.198;45.008;2024-02-26T10:34:07;102282.03;;;4.80;32.85
85105;BME280;75457;53.198;45.008;2024-02-26T10:36:34;102285.56;;;4.72;32.57
85105;BME280;75457;53.198;45.008;2024-02-26T10:39:01;102277.78;;;4.91;32.40
85105;BME280;75457;53.198;45.008;2024-02-26T10:41:27;102282.03;;;5.09;32.14
85105;BME280;75457;53.198;45.008;2024-02-26T10:43:54;102281.56;;;5.28;32.27
85105;BME280;75457;53.198;45.008;2024-02-26T10:46:21;102277.81;;;5.53;31.76
85105;BME280;75457;53.198;45.008;2024-02-26T10:48:50;102282.50;;;5.73;31.09
85105;BME280;75457;53.198;45.008;2024-02-26T10:51:16;102268.38;;;6.03;31.10
85105;BME280;75457;53.198;45.008;2024-02-26T10:53:45;102268.34;;;6.36;31.19
85105;BME280;75457;53.198;45.008;2024-02-26T10:56:11;102262.34;;;6.66;31.11
85105;BME280;75457;53.198;45.008;2024-02-26T10:58:39;102264.72;;;7.16;30.56
85105;BME280;75457;53.198;45.008;2024-02-26T11:01:06;102246.84;;;7.34;29.64
85105;BME280;75457;53.198;45.008;2024-02-26T11:03:33;102254.41;;;7.64;29.49
85105;BME280;75457;53.198;45.008;2024-02-26T11:06:00;102250.91;;;7.79;29.38
85105;BME280;75457;53.198;45.008;2024-02-26T11:08:26;102250.44;;;7.89;29.00
85105;BME280;75457;53.198;45.008;2024-02-26T11:10:54;102251.31;;;7.93;29.25
85105;BME280;75457;53.198;45.008;2024-02-26T11:13:21;102256.00;;;7.93;28.55
85105;BME280;75457;53.198;45.008;2024-02-26T11:15:47;102241.13;;;7.94;28.90
85105;BME280;75457;53.198;45.008;2024-02-26T11:18:14;102242.88;;;8.29;27.71
85105;BME280;75457;53.198;45.008;2024-02-26T11:20:42;102251.59;;;8.31;28.70
85105;BME280;75457;53.198;45.008;2024-02-26T11:23:08;102242.72;;;8.38;28.74
85105;BME280;75457;53.198;45.008;2024-02-26T11:25:35;102245.38;;;8.49;27.67
85105;BME280;75457;53.198;45.008;2024-02-26T11:28:04;102238.28;;;8.48;27.60
85105;BME280;75457;53.198;45.008;2024-02-26T11:30:33;102231.28;;;8.51;28.48
85105;BME280;75457;53.198;45.008;2024-02-26T11:33:01;102238.47;;;8.40;28.21
85105;BME280;75457;53.198;45.008;2024-02-26T11:35:28;102229.53;;;8.43;28.27
85105;BME280;75457;53.198;45.008;2024-02-26T11:37:56;102224.13;;;8.31;28.00
85105;BME280;75457;53.198;45.008;2024-02-26T11:40:22;102224.66;;;8.21;28.01
85105;BME280;75457;53.198;45.008;2024-02-26T11:42:48;102216.84;;;8.38;27.59
85105;BME280;75457;53.198;45.008;2024-02-26T11:45:49;102217.13;;;8.64;27.32
85105;BME280;75457;53.198;45.008;2024-02-26T11:48:15;102215.75;;;8.74;27.52
85105;BME280;75457;53.198;45.008;2024-02-26T11:50:42;102219.88;;;8.99;27.61
85105;BME280;75457;53.198;45.008;2024-02-26T11:53:22;102216.25;;;8.95;26.98
85105;BME280;75457;53.198;45.008;2024-02-26T11:55:48;102206.53;;;8.82;27.15
85105;BME280;75457;53.198;45.008;2024-02-26T11:58:14;102215.66;;;8.86;27.15
85105;BME280;75457;53.198;45.008;2024-02-26T12:00:40;102210.97;;;8.71;27.89
85105;BME280;75457;53.198;45.008;2024-02-26T12:03:05;102208.25;;;8.55;27.78
85105;BME280;75457;53.198;45.008;2024-02-26T12:05:32;102209.09;;;8.75;27.68
85105;BME280;75457;53.198;45.008;2024-02-26T12:08:00;102195.75;;;8.92;27.76
85105;BME280;75457;53.198;45.008;2024-02-26T12:10:30;102203.88;;;8.70;27.48
85105;BME280;75457;53.198;45.008;2024-02-26T12:12:59;102200.91;;;8.44;27.49
85105;BME280;75457;53.198;45.008;2024-02-26T12:15:30;102203.28;;;8.30;27.76
85105;BME280;75457;53.198;45.008;2024-02-26T12:17:56;102206.31;;;8.25;27.17
85105;BME280;75457;53.198;45.008;2024-02-26T12:20:22;102206.22;;;7.79;28.14
85105;BME280;75457;53.198;45.008;2024-02-26T12:22:49;102198.09;;;7.55;28.31
85105;BME280;75457;53.198;45.008;2024-02-26T12:25:16;102204.66;;;7.50;28.05
85105;BME280;75457;53.198;45.008;2024-02-26T12:27:43;102194.78;;;7.34;27.52
85105;BME280;75457;53.198;45.008;2024-02-26T12:30:09;102199.78;;;6.92;28.40
85105;BME280;75457;53.198;45.008;2024-02-26T12:32:35;102194.13;;;6.61;28.94
85105;BME280;75457;53.198;45.008;2024-02-26T12:35:01;102188.63;;;6.37;29.31
85105;BME280;75457;53.198;45.008;2024-02-26T12:37:27;102197.78;;;6.53;28.20
85105;BME280;75457;53.198;45.008;2024-02-26T12:39:53;102205.50;;;6.51;28.55
85105;BME280;75457;53.198;45.008;2024-02-26T12:42:18;102209.84;;;6.16;28.91
85105;BME280;75457;53.198;45.008;2024-02-26T12:44:46;102205.03;;;6.01;28.74
85105;BME280;75457;53.198;45.008;2024-02-26T12:47:11;102214.31;;;5.56;29.26
85105;BME280;75457;53.198;45.008;2024-02-26T12:49:37;102200.78;;;5.39;29.81
85105;BME280;75457;53.198;45.008;2024-02-26T12:52:03;102213.59;;;5.26;29.58
85105;BME280;75457;53.198;45.008;2024-02-26T12:54:30;102211.13;;;5.13;29.81
85105;BME280;75457;53.198;45.008;2024-02-26T12:56:57;102209.25;;;5.05;29.85
85105;BME280;75457;53.198;45.008;2024-02-26T12:59:23;102200.13;;;4.80;30.19
85105;BME280;75457;53.198;45.008;2024-02-26T13:01:50;102199.03;;;4.73;29.91
85105;BME280;75457;53.198;45.008;2024-02-26T13:04:16;102194.53;;;4.48;30.16
85105;BME280;75457;53.198;45.008;2024-02-26T13:06:42;102200.75;;;4.19;30.21
85105;BME280;75457;53.198;45.008;2024-02-26T13:09:07;102195.69;;;4.01;30.99
85105;BME280;75457;53.198;45.008;2024-02-26T13:11:33;102199.09;;;3.81;30.84
85105;BME280;75457;53.198;45.008;2024-02-26T13:13:58;102200.25;;;3.71;31.18
85105;BME280;75457;53.198;45.008;2024-02-26T13:16:25;102194.47;;;3.73;31.19
85105;BME280;75457;53.198;45.008;2024-02-26T13:18:52;102192.44;;;3.61;31.02
85105;BME280;75457;53.198;45.008;2024-02-26T13:21:18;102186.53;;;3.42;31.91
85105;BME280;75457;53.198;45.008;2024-02-26T13:23:48;102193.22;;;3.45;31.58
85105;BME280;75457;53.198;45.008;2024-02-26T13:26:14;102193.38;;;3.57;31.50
85105;BME280;75457;53.198;45.008;2024-02-26T13:28:40;102196.63;;;3.33;32.18
85105;BME280;75457;53.198;45.008;2024-02-26T13:31:05;102194.22;;;3.23;31.17
85105;BME280;75457;53.198;45.008;2024-02-26T13:33:31;102193.25;;;3.19;31.99
85105;BME280;75457;53.198;45.008;2024-02-26T13:35:59;102191.97;;;3.17;31.79
85105;BME280;75457;53.198;45.008;2024-02-26T13:38:25;102189.25;;;3.00;32.22
85105;BME280;75457;53.198;45.008;2024-02-26T13:40:51;102185.06;;;2.85;32.39
85105;BME280;75457;53.198;45.008;2024-02-26T13:43:17;102188.41;;;2.82;32.57
85105;BME280;75457;53.198;45.008;2024-02-26T13:45:42;102189.69;;;2.76;31.66
85105;BME280;75457;53.198;45.008;2024-02-26T13:48:09;102192.72;;;2.66;32.71
85105;BME280;75457;53.198;45.008;2024-02-26T13:50:34;102188.41;;;2.65;32.58
85105;BME280;75457;53.198;45.008;2024-02-26T13:53:02;102198.16;;;2.66;32.25
85105;BME280;75457;53.198;45.008;2024-02-26T13:55:28;102197.84;;;2.59;32.39
85105;BME280;75457;53.198;45.008;2024-02-26T13:57:54;102197.63;;;2.47;31.83
85105;BME280;75457;53.198;45.008;2024-02-26T14:00:20;102200.50;;;2.42;31.83